MST,Max TemperatureF,Mean TemperatureF,Min TemperatureF,Max Dew PointF,MeanDew PointF,Min DewpointF,Max Humidity, Mean Humidity, Min Humidity, Max Sea Level PressureIn, Mean Sea Level PressureIn, Min Sea Level PressureIn, Max VisibilityMiles, Mean VisibilityMiles, Min VisibilityMiles, Max Wind SpeedMPH, Mean Wind SpeedMPH, Max Gust SpeedMPH,PrecipitationIn, CloudCover, Events, WindDirDegrees
2012-12-1,71,52,32,30,25,21,64,42,20,29.98,29.88,29.79,10,10,10,24,8,29,0.00,0,,311
2012-12-2,69,49,28,29,26,23,72,46,19,30.03,29.83,29.57,10,10,10,30,11,40,0.00,0,,187
2012-12-3,57,43,28,36,19,9,75,45,15,30.24,29.96,29.56,10,10,6,33,12,40,0.00,0,,311
2012-12-4,57,39,20,16,13,9,62,40,18,30.41,30.29,30.19,10,10,10,15,7,17,0.00,0,,252
2012-12-5,69,48,26,24,20,16,58,38,17,30.18,29.95,29.80,10,10,9,17,6,22,0.00,0,,209
2012-12-6,49,36,23,31,21,12,74,49,23,30.09,29.99,29.81,10,10,8,21,9,25,0.00,2,,20
2012-12-7,48,35,22,22,19,15,81,58,34,30.05,29.96,29.90,10,10,10,21,8,24,0.00,1,,259
2012-12-8,52,39,26,27,20,14,75,53,30,29.99,29.86,29.70,10,10,10,28,12,36,T,7,Rain,245
2012-12-9,31,15,-2,10,1,-9,68,55,41,30.41,30.25,29.96,10,10,9,36,19,45,0.00,1,,328
2012-12-10,42,20,-3,16,5,-8,76,50,23,30.28,30.05,29.93,10,10,10,22,10,29,0.00,2,,283
2012-12-11,44,28,12,17,10,5,84,53,22,30.10,30.00,29.89,10,10,10,17,10,24,0.00,0,,243
2012-12-12,61,38,14,13,9,5,67,39,11,29.93,29.87,29.76,10,10,10,16,6,21,0.00,0,,198
2012-12-13,54,39,24,18,15,11,60,42,24,30.14,30.03,29.92,10,10,8,12,5,14,0.00,0,,196
2012-12-14,44,29,13,32,23,8,92,63,33,29.94,29.71,29.49,10,10,7,17,5,23,0.12,5,Rain,43
2012-12-15,50,40,29,32,26,22,96,68,39,29.81,29.71,29.50,10,8,1,17,10,22,0.00,4,Snow,329
2012-12-16,36,28,20,31,26,17,100,82,63,29.86,29.77,29.70,10,6,0,15,6,21,0.33,6,Fog-Snow,296
2012-12-17,49,33,16,28,21,10,84,63,42,29.83,29.69,29.57,10,10,10,22,9,29,0.00,1,,254
2012-12-18,45,35,25,26,21,18,75,56,37,29.81,29.76,29.61,10,10,10,12,9,14,0.00,2,,287
2012-12-19,30,23,15,25,20,7,96,82,67,30.20,29.86,29.68,10,5,0,37,18,98,0.24,6,Fog-Snow,9
2012-12-20,31,19,7,18,7,-1,69,61,53,30.37,30.30,30.18,10,10,10,22,12,30,0.00,0,,281
2012-12-21,40,23,5,22,12,4,92,72,51,30.36,30.26,30.14,10,10,10,10,3,13,0.00,0,,262
2012-12-22,42,25,8,25,15,5,92,67,41,30.14,30.09,29.97,10,10,10,14,6,17,0.00,0,,312
2012-12-23,34,19,3,23,14,3,96,80,63,30.13,30.05,30.00,10,10,10,14,3,20,0.00,0,,142
2012-12-24,23,15,6,17,11,4,92,82,71,30.25,30.11,29.93,10,9,7,15,7,20,0.00,2,,103
2012-12-25,13,11,8,9,4,-8,83,81,73,30.52,30.34,30.15,10,4,1,18,12,22,0.03,7,Snow,20
2012-12-26,18,5,-9,9,1,-12,90,82,73,30.34,30.13,29.85,10,10,10,20,9,24,T,3,,145
2012-12-27,18,10,2,9,6,-2,92,80,67,30.12,29.97,29.74,10,9,3,15,7,36,0.00,4,Snow,326
2012-12-28,22,10,-2,12,4,-7,87,75,62,30.26,30.19,30.13,10,10,10,15,9,33,0.00,2,,303
2012-12-29,31,20,9,16,9,3,80,64,47,30.36,30.27,30.03,10,10,10,16,8,21,0.00,0,,238
2012-12-30,28,19,9,17,11,5,88,72,55,30.21,30.12,30.02,10,10,10,15,7,21,0.00,0,,296
2012-12-31,25,20,14,21,18,10,96,88,80,30.25,30.13,30.02,10,4,1,14,5,16,0.02,8,Snow,32